Time;durP1;ratioP1;P1;durP2;ratioP2;P2;SDS_P1;SDS_P2;PMS_P1;PMS_P2;Temp;Humidity;BMP_temperature;BMP_pressure;BME280_temperature;BME280_humidity;BME280_pressure;Samples;Min_cycle;Max_cycle;Signal;HPM_P1;HPM_P2
2020/12/17 00:03:17;;;;;;;28.42;12.50;;;;;;;10.29;78.85;100430.41;8517996;33;20350;-74
2020/12/17 00:08:21;;;;;;;26.20;11.50;;;;;;;10.43;78.21;100431.22;8516318;33;20463;-74
2020/12/17 00:13:23;;;;;;;24.58;11.90;;;;;;;10.50;77.86;100436.16;8489261;33;20468;-74
2020/12/17 00:18:25;;;;;;;23.02;11.05;;;;;;;10.55;77.48;100428.69;8489170;33;20564;-75
2020/12/17 00:23:28;;;;;;;21.55;12.48;;;;;;;10.62;77.26;100428.19;8512269;33;20570;-75
2020/12/17 00:28:31;;;;;;;24.40;11.50;;;;;;;10.62;77.24;100430.00;8489729;33;20161;-74
2020/12/17 00:33:34;;;;;;;27.05;12.07;;;;;;;10.61;77.18;100430.94;8488725;33;20440;-74
2020/12/17 00:38:37;;;;;;;23.73;11.65;;;;;;;10.69;76.73;100425.97;8511753;33;21008;-74
2020/12/17 00:43:39;;;;;;;27.75;12.15;;;;;;;10.66;76.79;100421.66;8510993;33;20869;-74
2020/12/17 00:48:42;;;;;;;20.67;10.07;;;;;;;10.73;76.57;100432.81;8486036;33;20187;-74
2020/12/17 00:53:45;;;;;;;25.42;12.15;;;;;;;10.72;76.69;100439.09;8508737;33;20145;-74
2020/12/17 00:58:48;;;;;;;27.67;11.93;;;;;;;10.75;76.73;100430.03;8509323;33;20458;-74
2020/12/17 01:03:50;;;;;;;21.52;11.57;;;;;;;10.72;76.68;100428.41;8514763;33;20145;-74
2020/12/17 01:08:54;;;;;;;21.42;11.25;;;;;;;10.75;76.49;100425.56;8516233;33;20430;-74
2020/12/17 01:13:57;;;;;;;18.70;10.57;;;;;;;10.75;76.41;100417.56;8521088;33;20728;-74
2020/12/17 01:18:59;;;;;;;22.00;10.60;;;;;;;10.72;76.11;100416.88;8518050;33;20407;-74
2020/12/17 01:24:03;;;;;;;21.77;10.13;;;;;;;10.69;76.40;100412.59;8517694;33;20430;-74
2020/12/17 01:29:05;;;;;;;21.95;11.32;;;;;;;10.59;76.54;100425.72;8505076;33;20880;-74
2020/12/17 01:34:08;;;;;;;22.45;11.82;;;;;;;10.44;76.86;100421.38;8497166;33;20423;-74
2020/12/17 01:39:11;;;;;;;27.42;13.65;;;;;;;10.19;77.04;100428.28;8497656;33;20522;-74
2020/12/17 01:44:14;;;;;;;30.45;14.10;;;;;;;9.87;77.70;100422.31;8480180;33;20535;-75
2020/12/17 01:49:23;;;;;;;25.38;13.18;;;;;;;9.72;78.41;100434.00;8498316;33;21050;-74
2020/12/17 01:54:27;;;;;;;28.67;13.40;;;;;;;9.71;79.11;100437.63;8509296;33;20141;-74
2020/12/17 01:59:35;;;;;;;29.98;14.13;;;;;;;9.69;79.21;100435.03;8504646;33;20428;-74
2020/12/17 02:04:37;;;;;;;29.90;14.43;;;;;;;9.65;79.32;100438.81;8493817;33;20928;-74
2020/12/17 02:09:41;;;;;;;33.65;15.60;;;;;;;9.72;79.25;100434.84;8495788;33;20203;-74
2020/12/17 02:14:44;;;;;;;33.75;15.05;;;;;;;9.74;79.22;100429.41;8478281;33;20974;-74
2020/12/17 02:19:46;;;;;;;33.63;15.00;;;;;;;9.72;79.49;100426.84;8509789;33;20187;-74
2020/12/17 02:24:49;;;;;;;32.65;15.25;;;;;;;9.76;79.29;100433.72;8510981;33;20183;-73
2020/12/17 02:29:52;;;;;;;34.88;16.48;;;;;;;9.76;79.28;100420.38;8488479;33;20525;-75
2020/12/17 02:34:55;;;;;;;35.97;15.30;;;;;;;9.73;79.27;100425.88;8515942;33;20141;-74
2020/12/17 02:39:58;;;;;;;32.35;16.30;;;;;;;9.71;79.37;100408.28;8518307;33;20145;-74
2020/12/17 02:45:01;;;;;;;39.85;16.42;;;;;;;9.69;79.71;100416.34;8522390;33;20437;-74
2020/12/17 02:50:05;;;;;;;37.75;16.27;;;;;;;9.67;79.68;100414.75;8520274;33;20414;-74
2020/12/17 02:55:10;;;;;;;33.85;16.70;;;;;;;9.61;79.32;100410.66;8495533;33;20682;-75
2020/12/17 03:00:13;;;;;;;34.35;16.13;;;;;;;9.55;79.72;100406.56;8512888;33;20243;-75
2020/12/17 03:05:15;;;;;;;40.00;16.50;;;;;;;9.49;79.70;100412.28;8513804;33;20927;-75
2020/12/17 03:10:18;;;;;;;36.40;16.50;;;;;;;9.48;80.00;100404.34;8512993;33;20160;-75
2020/12/17 03:15:20;;;;;;;31.30;15.80;;;;;;;9.42;80.12;100405.59;8514002;33;20223;-75
2020/12/17 03:20:24;;;;;;;33.25;16.40;;;;;;;9.41;80.38;100406.56;8513253;33;20453;-75
2020/12/17 03:25:27;;;;;;;33.70;15.60;;;;;;;9.38;80.57;100405.88;8493778;33;21305;-74
2020/12/17 03:30:29;;;;;;;35.00;15.63;;;;;;;9.32;80.45;100399.09;8520059;33;20206;-74
2020/12/17 03:35:32;;;;;;;39.78;16.80;;;;;;;9.24;80.72;100394.25;8524585;33;20352;-75
2020/12/17 03:40:35;;;;;;;37.50;15.93;;;;;;;9.24;80.82;100394.25;8523109;33;20419;-75
2020/12/17 03:45:37;;;;;;;36.92;16.65;;;;;;;9.24;81.00;100399.59;8518585;33;20971;-74
2020/12/17 03:50:39;;;;;;;36.00;15.15;;;;;;;9.24;80.58;100391.59;8518966;33;20243;-74
2020/12/17 03:55:44;;;;;;;34.53;16.40;;;;;;;9.23;80.48;100391.69;8521684;33;20617;-74
2020/12/17 04:00:47;;;;;;;33.33;15.23;;;;;;;9.17;80.72;100392.06;8521504;33;20410;-74
2020/12/17 04:05:50;;;;;;;33.80;15.27;;;;;;;9.14;80.53;100390.44;8520623;33;20527;-75
2020/12/17 04:10:53;;;;;;;32.95;14.25;;;;;;;9.08;80.33;100391.66;8519140;33;20189;-74
2020/12/17 04:15:56;;;;;;;35.95;16.05;;;;;;;9.09;80.39;100385.38;8493391;33;20974;-74
2020/12/17 04:20:58;;;;;;;35.03;15.20;;;;;;;9.08;80.50;100382.81;8518042;33;20457;-74
2020/12/17 04:26:01;;;;;;;28.52;14.73;;;;;;;9.14;80.72;100374.44;8519069;33;20691;-75
2020/12/17 04:31:03;;;;;;;33.28;14.13;;;;;;;9.24;80.56;100380.06;8523223;33;20188;-75
2020/12/17 04:36:06;;;;;;;25.15;13.93;;;;;;;9.25;80.55;100363.13;8517134;33;20421;-74
2020/12/17 04:41:09;;;;;;;28.67;13.68;;;;;;;9.27;80.24;100359.41;8519786;33;20144;-74
2020/12/17 04:46:14;;;;;;;27.48;13.65;;;;;;;9.40;80.36;100372.81;8520030;33;20534;-74
2020/12/17 04:51:16;;;;;;;25.60;12.80;;;;;;;9.49;80.26;100360.75;8520825;33;20988;-74
2020/12/17 04:56:19;;;;;;;24.98;12.63;;;;;;;9.67;79.68;100353.38;8521280;33;20288;-74
2020/12/17 05:01:22;;;;;;;26.75;13.20;;;;;;;9.76;79.16;100363.44;8519758;33;20442;-75
2020/12/17 05:06:26;;;;;;;22.38;11.25;;;;;;;9.90;79.07;100360.78;8520245;33;20411;-74
2020/12/17 05:11:29;;;;;;;22.50;11.43;;;;;;;10.07;78.92;100358.84;8521114;33;20244;-75
2020/12/17 05:16:32;;;;;;;22.08;11.73;;;;;;;10.27;78.26;100355.72;8518818;33;20180;-74
2020/12/17 05:21:34;;;;;;;23.35;11.23;;;;;;;10.38;77.39;100355.03;8517914;33;20199;-75
2020/12/17 05:26:40;;;;;;;23.80;12.35;;;;;;;10.35;77.61;100352.56;8518886;33;20506;-74
2020/12/17 05:31:42;;;;;;;23.75;11.98;;;;;;;10.46;77.23;100358.03;8519281;33;20574;-75
2020/12/17 05:36:47;;;;;;;22.02;11.07;;;;;;;10.62;76.52;100366.75;8516254;33;20430;-74
2020/12/17 05:41:53;;;;;;;18.70;10.27;;;;;;;10.64;76.18;100366.63;8513243;33;20596;-74
2020/12/17 05:46:57;;;;;;;23.25;10.68;;;;;;;10.70;75.90;100376.06;8515142;33;20173;-75
2020/12/17 05:52:14;;;;;;;20.38;10.30;;;;;;;10.67;75.99;100387.81;8516424;33;20171;-74
2020/12/17 05:57:17;;;;;;;20.20;10.65;;;;;;;10.68;75.86;100376.16;8492243;33;20493;-74
2020/12/17 06:02:22;;;;;;;21.17;12.00;;;;;;;10.77;75.39;100385.38;8519943;33;20571;-74
2020/12/17 06:07:33;;;;;;;18.23;11.10;;;;;;;10.76;74.98;100381.00;8519826;33;20152;-74
2020/12/17 06:12:52;;;;;;;17.80;9.23;;;;;;;10.73;75.23;100391.88;8520230;33;20427;-74
2020/12/17 06:17:57;;;;;;;17.42;10.15;;;;;;;10.81;74.85;100395.75;8496691;33;20473;-74
2020/12/17 06:23:02;;;;;;;21.08;10.60;;;;;;;10.77;74.88;100402.25;8520500;33;20240;-75
2020/12/17 06:28:18;;;;;;;18.45;10.10;;;;;;;10.88;74.68;100407.72;8523638;33;20426;-74
2020/12/17 06:33:35;;;;;;;18.00;10.05;;;;;;;10.83;74.67;100415.22;8520154;33;20964;-74
2020/12/17 06:38:39;;;;;;;21.30;11.18;;;;;;;10.70;75.44;100419.66;8520507;33;20466;-74
2020/12/17 06:43:42;;;;;;;17.70;9.85;;;;;;;10.73;75.30;100418.63;8519760;33;20141;-74
2020/12/17 06:48:47;;;;;;;17.73;9.85;;;;;;;10.65;75.49;100427.13;8519819;33;20175;-74
2020/12/17 06:53:50;;;;;;;21.52;10.80;;;;;;;10.67;75.45;100426.06;8520794;33;20873;-74
2020/12/17 06:59:19;;;;;;;19.63;10.02;;;;;;;10.67;75.55;100410.03;8519760;33;20172;-74
2020/12/17 07:04:42;;;;;;;18.25;10.48;;;;;;;10.60;75.75;100427.44;8525910;33;20153;-74
2020/12/17 07:09:48;;;;;;;20.33;10.90;;;;;;;10.65;75.87;100443.16;8498642;33;20490;-74
2020/12/17 07:14:52;;;;;;;17.13;9.23;;;;;;;10.56;77.10;100454.44;8521675;33;20148;-74
2020/12/17 07:19:55;;;;;;;21.73;10.85;;;;;;;10.49;78.14;100456.66;8520080;33;20615;-74
2020/12/17 07:24:57;;;;;;;19.75;11.15;;;;;;;10.34;79.19;100466.53;8497449;33;20450;-74
2020/12/17 07:30:04;;;;;;;18.73;10.63;;;;;;;10.31;79.83;100468.53;8523432;33;20671;-75
2020/12/17 07:35:22;;;;;;;21.42;11.35;;;;;;;10.28;80.42;100472.25;8538426;33;20565;-74
2020/12/17 07:40:31;;;;;;;21.30;11.32;;;;;;;10.27;80.92;100480.34;8523492;33;20424;-74
2020/12/17 07:45:52;;;;;;;21.88;11.07;;;;;;;10.27;80.93;100477.69;8519790;33;20558;-74
2020/12/17 07:50:54;;;;;;;19.98;11.00;;;;;;;10.23;81.01;100480.56;8519260;33;20426;-74
2020/12/17 07:56:07;;;;;;;22.20;10.23;;;;;;;10.21;81.09;100468.25;8518448;33;21097;-74
2020/12/17 08:01:12;;;;;;;20.38;10.60;;;;;;;10.25;81.53;100481.28;8519720;33;20619;-74
2020/12/17 08:06:17;;;;;;;19.33;10.73;;;;;;;10.29;81.97;100474.00;8523499;33;20198;-75
2020/12/17 08:11:20;;;;;;;21.52;11.65;;;;;;;10.29;81.89;100479.34;8526862;33;20911;-74
2020/12/17 08:16:23;;;;;;;19.40;11.43;;;;;;;10.30;81.69;100481.03;8538702;33;20425;-74
2020/12/17 08:21:27;;;;;;;19.15;11.30;;;;;;;10.33;82.06;100496.00;8536153;33;20239;-75
2020/12/17 08:26:31;;;;;;;19.00;11.27;;;;;;;10.35;81.80;100502.97;8529509;33;20520;-75
2020/12/17 08:31:34;;;;;;;16.42;8.07;;;;;;;10.41;82.24;100507.91;8534002;33;20471;-74
2020/12/17 08:36:37;;;;;;;18.25;9.88;;;;;;;10.34;82.40;100525.31;8544381;33;21020;-75
2020/12/17 08:41:42;;;;;;;16.38;9.40;;;;;;;10.35;82.60;100537.69;8533843;33;20152;-75
2020/12/17 08:46:49;;;;;;;15.05;9.00;;;;;;;10.41;83.12;100539.09;8536781;33;20141;-75
2020/12/17 08:51:51;;;;;;;17.60;10.30;;;;;;;10.39;83.26;100549.91;8506142;33;20149;-75
2020/12/17 08:56:59;;;;;;;12.60;6.10;;;;;;;10.35;83.51;100559.06;8526187;33;20455;-75
2020/12/17 09:02:02;;;;;;;12.45;7.32;;;;;;;10.32;83.47;100569.94;8526193;33;20502;-75
2020/12/17 09:07:04;;;;;;;15.00;8.13;;;;;;;10.41;83.87;100572.00;8506665;33;20224;-75
2020/12/17 09:12:07;;;;;;;13.07;7.38;;;;;;;10.36;84.52;100584.78;8538945;33;20191;-75
2020/12/17 09:17:15;;;;;;;13.02;7.47;;;;;;;10.36;84.48;100587.47;8541821;33;20499;-76
2020/12/17 09:22:20;;;;;;;15.82;7.45;;;;;;;10.38;85.08;100585.56;8540903;33;20243;-76
2020/12/17 09:27:24;;;;;;;14.23;7.63;;;;;;;10.53;84.40;100605.13;8542063;33;20491;-76
2020/12/17 09:32:28;;;;;;;14.80;8.43;;;;;;;10.51;84.63;100611.53;8540669;33;20941;-76
2020/12/17 09:37:30;;;;;;;7.13;4.60;;;;;;;10.43;84.71;100622.69;8541172;33;20439;-76
2020/12/17 09:42:38;;;;;;;8.85;5.05;;;;;;;10.39;84.62;100630.03;8540580;33;20416;-77
2020/12/17 09:47:41;;;;;;;9.25;5.35;;;;;;;10.41;85.43;100629.91;8548878;33;20152;-77
2020/12/17 09:52:44;;;;;;;11.10;6.78;;;;;;;10.46;85.25;100634.03;8546121;33;20133;-76
2020/12/17 09:57:48;;;;;;;11.77;6.50;;;;;;;10.24;85.21;100638.94;8573429;33;20207;-78
2020/12/17 10:02:51;;;;;;;12.80;7.95;;;;;;;10.49;85.11;100651.69;8532155;33;20465;-79
2020/12/17 10:07:53;;;;;;;13.45;7.65;;;;;;;10.33;85.52;100653.56;8546528;33;20171;-78
2020/12/17 10:12:58;;;;;;;10.93;6.45;;;;;;;10.26;85.47;100658.41;8543664;33;20295;-78
2020/12/17 10:18:02;;;;;;;14.02;7.55;;;;;;;10.37;85.29;100673.81;8541209;33;20141;-77
2020/12/17 10:23:05;;;;;;;11.70;8.20;;;;;;;10.42;85.45;100679.72;8494259;33;20141;-77
2020/12/17 10:28:07;;;;;;;12.75;7.63;;;;;;;10.49;84.60;100697.09;8545109;33;20548;-76
2020/12/17 10:33:10;;;;;;;12.07;7.85;;;;;;;10.53;84.94;100687.94;8546112;33;20641;-76
2020/12/17 10:38:12;;;;;;;9.10;5.65;;;;;;;10.51;84.80;100686.31;8546345;33;20231;-75
2020/12/17 10:43:15;;;;;;;12.38;8.68;;;;;;;10.89;83.83;100692.78;8545340;33;20985;-75
2020/12/17 10:48:18;;;;;;;12.02;7.43;;;;;;;10.97;83.76;100694.09;8541330;33;20528;-75
2020/12/17 10:53:20;;;;;;;13.38;7.70;;;;;;;11.09;83.57;100704.03;8518361;33;20145;-74
2020/12/17 10:58:22;;;;;;;12.70;8.48;;;;;;;11.27;83.00;100699.31;8542687;33;20239;-75
2020/12/17 11:03:26;;;;;;;13.27;7.03;;;;;;;11.08;82.43;100713.88;8537410;33;20543;-74
2020/12/17 11:08:28;;;;;;;14.10;7.75;;;;;;;10.96;83.04;100720.00;8548998;33;20643;-74
2020/12/17 11:13:31;;;;;;;11.77;6.47;;;;;;;10.81;82.33;100702.25;8533719;33;20426;-74
2020/12/17 11:18:34;;;;;;;10.32;5.82;;;;;;;10.88;82.18;100701.75;8533809;33;20685;-74
2020/12/17 11:23:39;;;;;;;9.75;6.15;;;;;;;10.82;80.67;100714.66;8542702;33;20155;-74
2020/12/17 11:28:41;;;;;;;6.82;3.47;;;;;;;10.87;81.16;100712.56;8519732;33;20243;-74
2020/12/17 11:33:45;;;;;;;7.82;5.55;;;;;;;10.93;81.29;100695.28;8540822;33;20445;-75
2020/12/17 11:38:48;;;;;;;8.27;4.45;;;;;;;10.86;79.60;100713.50;8528951;33;20427;-75
2020/12/17 11:43:50;;;;;;;7.75;4.03;;;;;;;11.02;79.16;100703.56;8524482;33;20439;-75
2020/12/17 11:48:53;;;;;;;5.80;4.30;;;;;;;11.13;79.13;100708.22;8524394;33;20141;-75
2020/12/17 11:53:55;;;;;;;8.25;3.70;;;;;;;11.20;79.51;100703.34;8523077;33;20688;-75
2020/12/17 11:58:58;;;;;;;6.90;4.10;;;;;;;10.99;79.58;100705.56;8522676;33;20425;-74
2020/12/17 12:04:01;;;;;;;4.20;3.50;;;;;;;11.07;78.96;100719.31;8524322;33;21048;-75
2020/12/17 12:09:06;;;;;;;4.25;3.15;;;;;;;11.02;78.82;100724.94;8523042;33;20966;-74
2020/12/17 12:14:11;;;;;;;4.57;3.03;;;;;;;11.00;78.54;100723.34;8503858;33;20428;-74
2020/12/17 12:19:14;;;;;;;5.35;3.42;;;;;;;11.04;78.12;100727.53;8537359;33;20462;-75
2020/12/17 12:24:17;;;;;;;5.13;3.88;;;;;;;11.12;77.91;100711.84;8539324;33;20519;-74
2020/12/17 12:29:19;;;;;;;5.80;4.05;;;;;;;11.19;78.18;100714.97;8540770;33;20298;-74
2020/12/17 12:34:23;;;;;;;5.88;4.07;;;;;;;11.30;78.07;100728.56;8541069;33;20558;-74
2020/12/17 12:39:25;;;;;;;5.15;3.67;;;;;;;11.28;77.61;100730.47;8542192;33;20575;-74
2020/12/17 12:44:27;;;;;;;5.50;3.92;;;;;;;11.22;77.04;100723.69;8516997;33;20149;-74
2020/12/17 12:49:31;;;;;;;4.43;3.45;;;;;;;11.18;77.76;100734.69;8513099;33;20519;-74
2020/12/17 12:54:34;;;;;;;7.13;4.00;;;;;;;11.38;77.13;100728.91;8528949;33;20149;-75
2020/12/17 12:59:37;;;;;;;5.47;3.75;;;;;;;11.35;77.02;100737.13;8524095;33;20454;-74
2020/12/17 13:04:40;;;;;;;4.25;3.45;;;;;;;11.46;76.25;100741.78;8524712;33;20953;-74
2020/12/17 13:09:42;;;;;;;4.18;3.53;;;;;;;11.42;76.82;100746.47;8524536;33;20420;-74
2020/12/17 13:14:45;;;;;;;5.55;3.42;;;;;;;11.35;75.69;100745.13;8539779;27;20501;-72
2020/12/17 13:19:48;;;;;;;5.28;3.78;;;;;;;11.46;74.38;100757.81;8580709;33;20147;-71
2020/12/17 13:24:50;;;;;;;7.68;3.30;;;;;;;11.45;73.58;100764.16;8582031;33;20670;-73
2020/12/17 13:29:53;;;;;;;4.50;3.70;;;;;;;11.45;73.63;100767.69;8580742;33;20424;-72
2020/12/17 13:34:56;;;;;;;3.22;2.20;;;;;;;11.11;73.10;100783.22;8577368;33;20517;-72
2020/12/17 13:39:58;;;;;;;3.13;2.03;;;;;;;11.33;73.09;100804.13;8577601;33;20761;-72
2020/12/17 13:45:01;;;;;;;4.53;3.03;;;;;;;11.41;73.15;100770.63;8577615;33;20421;-72
2020/12/17 13:50:04;;;;;;;5.68;3.58;;;;;;;11.16;73.70;100780.22;8576594;33;20495;-72
2020/12/17 13:55:06;;;;;;;9.38;3.55;;;;;;;11.28;73.47;100789.31;8575177;33;20159;-72
2020/12/17 14:00:09;;;;;;;4.90;2.67;;;;;;;11.06;72.34;100779.97;8568115;33;20437;-72
2020/12/17 14:05:14;;;;;;;11.48;3.03;;;;;;;11.38;70.75;100789.56;8568678;33;20144;-72
2020/12/17 14:10:17;;;;;;;7.75;3.25;;;;;;;11.62;68.36;100798.69;8543985;33;20528;-73
2020/12/17 14:15:19;;;;;;;4.20;1.95;;;;;;;11.40;68.78;100811.75;8571189;33;20644;-72
2020/12/17 14:20:23;;;;;;;3.08;2.58;;;;;;;11.70;68.44;100814.25;8571800;33;20544;-72
2020/12/17 14:25:25;;;;;;;3.30;3.00;;;;;;;11.49;68.49;100827.19;8572661;33;20502;-72
2020/12/17 14:30:27;;;;;;;4.72;3.10;;;;;;;11.65;68.86;100838.63;8573827;33;20476;-72
2020/12/17 14:35:30;;;;;;;4.20;2.78;;;;;;;11.78;68.45;100838.72;8566623;33;20207;-72
2020/12/17 14:40:33;;;;;;;5.47;3.53;;;;;;;11.65;68.76;100846.66;8566722;33;20482;-74
2020/12/17 14:45:35;;;;;;;4.70;2.83;;;;;;;11.13;69.79;100861.53;8565570;33;20966;-72
2020/12/17 14:50:38;;;;;;;3.33;2.88;;;;;;;11.14;70.53;100859.72;8566271;33;20231;-73
2020/12/17 14:55:40;;;;;;;5.20;2.70;;;;;;;11.12;70.63;100861.63;8570993;33;20621;-71
2020/12/17 15:00:43;;;;;;;3.80;2.05;;;;;;;10.98;70.32;100870.47;8567807;33;20573;-72
2020/12/17 15:05:46;;;;;;;5.72;3.00;;;;;;;11.15;70.27;100877.47;8567203;33;21221;-71
2020/12/17 15:10:48;;;;;;;6.10;3.33;;;;;;;11.25;69.49;100873.28;8565979;33;20542;-71
2020/12/17 15:15:51;;;;;;;9.55;3.33;;;;;;;11.08;70.66;100876.13;8568747;33;20592;-72
2020/12/17 15:21:19;;;;;;;3.40;2.30;;;;;;;10.97;71.10;100889.28;8570760;33;20427;-73
2020/12/17 15:26:22;;;;;;;5.35;2.92;;;;;;;11.21;70.53;100898.47;8501170;33;20441;-72
2020/12/17 15:31:24;;;;;;;4.05;3.20;;;;;;;11.14;70.88;100907.84;8512006;33;20525;-73
2020/12/17 15:36:27;;;;;;;4.38;3.38;;;;;;;11.15;71.08;100898.88;8512584;33;20181;-73
2020/12/17 15:41:30;;;;;;;7.60;3.28;;;;;;;11.18;70.78;100901.34;8489226;33;20446;-72
2020/12/17 15:46:32;;;;;;;5.55;3.25;;;;;;;11.02;71.04;100913.94;8512460;33;20419;-72
2020/12/17 15:51:35;;;;;;;6.45;3.42;;;;;;;11.11;71.08;100924.09;8508348;33;20865;-71
2020/12/17 15:56:39;;;;;;;3.88;3.08;;;;;;;10.87;71.61;100918.38;8553122;33;20547;-72
2020/12/17 16:01:41;;;;;;;2.95;2.60;;;;;;;10.98;71.15;100929.31;8547698;33;20152;-72
2020/12/17 16:06:44;;;;;;;5.78;3.03;;;;;;;11.10;70.89;100931.22;8547583;33;20463;-73
2020/12/17 16:11:47;;;;;;;6.35;3.25;;;;;;;11.03;71.31;100942.41;8520939;33;21111;-72
2020/12/17 16:16:50;;;;;;;4.43;2.78;;;;;;;11.15;71.02;100936.31;8502901;33;20456;-72
2020/12/17 16:21:53;;;;;;;9.63;3.25;;;;;;;11.08;70.83;100946.53;8504676;33;20457;-72
2020/12/17 16:26:56;;;;;;;3.70;2.40;;;;;;;10.92;70.80;100955.56;8503894;33;20429;-72
2020/12/17 16:32:06;;;;;;;3.75;2.85;;;;;;;11.06;70.31;100956.44;8507997;33;20497;-73
2020/12/17 16:37:09;;;;;;;3.55;2.40;;;;;;;10.97;70.50;100965.03;8510523;33;20994;-72
2020/12/17 16:42:12;;;;;;;4.75;3.08;;;;;;;10.86;70.86;100972.78;8510099;33;20160;-72
2020/12/17 16:47:14;;;;;;;7.15;3.45;;;;;;;10.85;70.93;100961.25;8511258;33;20424;-72
2020/12/17 16:52:17;;;;;;;7.95;2.78;;;;;;;10.84;70.55;100964.03;8526906;33;20199;-72
2020/12/17 16:57:21;;;;;;;5.03;3.00;;;;;;;10.79;70.55;100963.44;8524467;33;20522;-72
2020/12/17 17:02:23;;;;;;;5.47;3.35;;;;;;;10.76;70.86;100972.47;8525954;33;20466;-72
2020/12/17 17:07:26;;;;;;;5.22;3.00;;;;;;;10.61;71.13;100966.22;8530304;33;20585;-71
2020/12/17 17:12:29;;;;;;;4.13;2.78;;;;;;;10.76;70.50;100976.97;8539060;33;20360;-72
2020/12/17 17:17:31;;;;;;;4.38;2.80;;;;;;;10.73;70.70;100983.34;8481829;33;20513;-72
2020/12/17 17:22:34;;;;;;;4.53;3.20;;;;;;;10.90;70.32;100982.38;8469822;33;20308;-72
2020/12/17 17:27:38;;;;;;;4.35;2.88;;;;;;;10.83;70.36;100981.00;8471836;34;20641;-72
2020/12/17 17:32:40;;;;;;;4.18;2.75;;;;;;;10.85;70.27;100987.97;8474570;33;20607;-72
2020/12/17 17:37:44;;;;;;;11.45;4.90;;;;;;;11.02;70.03;100991.47;8492967;33;20363;-72
2020/12/17 17:42:47;;;;;;;5.20;4.65;;;;;;;11.04;69.70;100994.91;8509666;33;20418;-72
2020/12/17 17:47:50;;;;;;;6.55;4.30;;;;;;;10.88;69.90;100989.59;8535955;33;20433;-72
2020/12/17 17:52:53;;;;;;;5.43;3.83;;;;;;;10.98;70.10;100996.16;8527172;33;20153;-71
2020/12/17 17:57:55;;;;;;;7.47;4.78;;;;;;;10.87;70.06;100995.91;8527322;33;20149;-71
2020/12/17 18:02:58;;;;;;;5.45;4.00;;;;;;;10.92;69.54;100993.84;8475143;33;20568;-72
2020/12/17 18:08:01;;;;;;;7.72;4.40;;;;;;;10.83;70.29;100999.69;8464144;34;20442;-71
2020/12/17 18:13:03;;;;;;;4.90;3.17;;;;;;;10.75;70.04;100983.25;8463717;34;20654;-72
2020/12/17 18:18:06;;;;;;;5.78;3.60;;;;;;;10.78;69.91;101000.00;8468347;34;20207;-71
2020/12/17 18:23:09;;;;;;;5.13;3.75;;;;;;;10.81;69.72;101001.63;8475457;33;20456;-72
2020/12/17 18:28:11;;;;;;;9.10;5.28;;;;;;;10.78;69.49;101005.34;8482098;34;20446;-72
2020/12/17 18:33:18;;;;;;;7.40;3.55;;;;;;;10.74;69.77;101002.91;8484126;33;20481;-71
2020/12/17 18:38:21;;;;;;;7.57;3.80;;;;;;;10.66;70.45;101014.91;8483042;33;20137;-72
2020/12/17 18:43:24;;;;;;;6.53;4.32;;;;;;;10.82;69.97;101008.69;8485643;33;20438;-72
2020/12/17 18:48:26;;;;;;;6.07;3.75;;;;;;;10.63;70.40;101020.41;8488124;34;20506;-71
2020/12/17 18:53:30;;;;;;;5.00;4.00;;;;;;;10.68;70.68;101031.72;8489681;34;21057;-71
2020/12/17 18:58:32;;;;;;;5.88;3.88;;;;;;;10.40;71.38;101039.56;8489544;34;21017;-71
2020/12/17 19:03:35;;;;;;;6.18;3.65;;;;;;;10.64;70.23;101051.56;8516458;33;20203;-72
2020/12/17 19:08:38;;;;;;;4.85;3.83;;;;;;;10.71;69.94;101057.41;8547923;33;20148;-72
2020/12/17 19:13:41;;;;;;;6.28;4.13;;;;;;;10.72;70.40;101059.13;8548905;33;20534;-72
2020/12/17 19:18:44;;;;;;;9.27;5.07;;;;;;;10.67;69.81;101051.38;8507097;28;20907;-72
2020/12/17 19:23:48;;;;;;;8.65;4.57;;;;;;;10.70;69.47;101054.84;8487006;34;20407;-73
2020/12/17 19:28:53;;;;;;;7.97;4.90;;;;;;;10.60;69.91;101052.66;8436878;34;20216;-71
2020/12/17 19:33:55;;;;;;;6.45;4.28;;;;;;;10.53;70.01;101064.66;8377977;34;20931;-71
2020/12/17 19:38:58;;;;;;;8.02;4.20;;;;;;;10.43;69.83;101066.13;8379074;34;20445;-71
2020/12/17 19:44:01;;;;;;;7.00;4.00;;;;;;;10.41;69.75;101068.84;8379554;34;20451;-71
2020/12/17 19:49:03;;;;;;;8.95;4.15;;;;;;;10.55;69.57;101075.25;8381920;34;20187;-72
2020/12/17 19:54:07;;;;;;;6.25;4.10;;;;;;;10.36;69.63;101073.59;8376768;34;20486;-72
2020/12/17 19:59:10;;;;;;;8.65;4.32;;;;;;;10.27;69.87;101081.22;8418051;34;20155;-71
2020/12/17 20:04:13;;;;;;;6.50;4.10;;;;;;;10.07;70.23;101075.16;8428340;34;20425;-72
2020/12/17 20:09:17;;;;;;;11.18;4.57;;;;;;;10.12;70.05;101090.91;8420997;34;20164;-72
2020/12/17 20:14:19;;;;;;;10.13;4.13;;;;;;;9.99;70.35;101088.06;8417285;34;20482;-74
2020/12/17 20:19:22;;;;;;;5.97;4.15;;;;;;;9.94;70.58;101095.44;8421845;34;20281;-72
2020/12/17 20:24:26;;;;;;;8.05;4.72;;;;;;;9.83;70.72;101096.00;8428146;34;20409;-71
2020/12/17 20:29:28;;;;;;;6.60;4.75;;;;;;;9.72;70.93;101096.56;8426247;34;20151;-71
2020/12/17 20:34:31;;;;;;;8.40;4.43;;;;;;;9.54;71.56;101097.50;8428110;34;20185;-69
2020/12/17 20:39:34;;;;;;;7.53;4.35;;;;;;;9.43;71.96;101105.19;8430869;34;20536;-71
2020/12/17 20:44:36;;;;;;;9.13;4.55;;;;;;;9.31;72.26;101096.88;8428772;34;20201;-70
2020/12/17 20:49:39;;;;;;;6.00;4.20;;;;;;;9.27;72.27;101097.09;8405295;34;20205;-69
2020/12/17 20:54:42;;;;;;;6.55;4.50;;;;;;;9.23;71.89;101107.06;8428065;34;20926;-70
2020/12/17 20:59:44;;;;;;;7.18;5.07;;;;;;;9.17;72.17;101101.19;8424008;34;20155;-69
2020/12/17 21:04:49;;;;;;;7.28;4.63;;;;;;;8.96;72.79;101108.41;8422253;34;20276;-70
2020/12/17 21:09:52;;;;;;;7.90;4.70;;;;;;;8.94;72.90;101097.84;8421118;34;20382;-71
2020/12/17 21:14:54;;;;;;;7.65;4.70;;;;;;;8.94;73.04;101104.94;8421858;34;20158;-69
2020/12/17 21:19:57;;;;;;;5.97;4.07;;;;;;;8.86;73.36;101102.69;8403034;34;20579;-70
2020/12/17 21:25:00;;;;;;;10.40;4.20;;;;;;;8.81;73.37;101099.38;8428151;34;20419;-71
2020/12/17 21:30:04;;;;;;;5.47;4.00;;;;;;;8.75;73.59;101105.84;8479365;33;20319;-70
2020/12/17 21:35:08;;;;;;;9.45;4.30;;;;;;;8.74;73.43;101103.25;8489875;33;20903;-70
2020/12/17 21:40:12;;;;;;;7.00;4.20;;;;;;;8.60;73.72;101098.59;8490268;33;20554;-71
2020/12/17 21:45:15;;;;;;;7.13;4.35;;;;;;;8.66;73.71;101109.78;8487558;33;20425;-74
2020/12/17 21:50:17;;;;;;;7.47;4.30;;;;;;;8.69;73.38;101111.47;8460475;33;20245;-72
2020/12/17 21:55:21;;;;;;;8.60;4.43;;;;;;;8.65;73.30;101118.72;8446081;33;21103;-70
2020/12/17 22:00:24;;;;;;;5.25;4.15;;;;;;;8.65;73.53;101107.22;8446798;33;20503;-72
2020/12/17 22:05:27;;;;;;;10.38;4.05;;;;;;;8.63;73.53;101120.59;8434361;33;20215;-71
2020/12/17 22:10:31;;;;;;;7.13;3.85;;;;;;;8.72;72.85;101119.31;8433140;33;21093;-72
2020/12/17 22:15:33;;;;;;;5.40;3.67;;;;;;;8.65;73.32;101124.06;8432961;33;20436;-73
2020/12/17 22:20:35;;;;;;;6.40;4.05;;;;;;;8.69;72.95;101127.44;8432587;33;20199;-72
2020/12/17 22:25:50;;;;;;;5.47;3.88;;;;;;;8.64;73.25;101106.38;8432115;33;20146;-72
2020/12/17 22:30:53;;;;;;;5.03;3.78;;;;;;;8.60;73.25;101118.09;8439486;33;20185;-71
2020/12/17 22:35:55;;;;;;;7.13;3.78;;;;;;;8.59;73.36;101120.84;8446283;33;20495;-71
2020/12/17 22:40:58;;;;;;;4.50;3.33;;;;;;;8.58;73.17;101124.41;8444132;33;20154;-71
2020/12/17 22:46:00;;;;;;;6.22;3.97;;;;;;;8.62;73.21;101116.22;8444831;33;20728;-72
2020/12/17 22:51:02;;;;;;;5.43;3.70;;;;;;;8.58;73.26;101121.75;8435790;33;20185;-72
2020/12/17 22:56:06;;;;;;;5.00;3.80;;;;;;;8.56;73.38;101123.66;8438843;33;20536;-71
2020/12/17 23:01:08;;;;;;;11.82;3.90;;;;;;;8.62;73.37;101126.88;8433229;33;20935;-71
2020/12/17 23:06:10;;;;;;;6.90;3.92;;;;;;;8.62;73.03;101132.19;8432007;33;20138;-70
2020/12/17 23:11:14;;;;;;;6.57;3.97;;;;;;;8.60;73.26;101126.06;8431571;33;21234;-74
2020/12/17 23:16:25;;;;;;;9.43;4.20;;;;;;;8.63;72.75;101136.59;8451010;33;20973;-72
2020/12/17 23:21:29;;;;;;;5.53;3.65;;;;;;;8.63;73.48;101125.94;8428247;33;20450;-71
2020/12/17 23:26:33;;;;;;;8.55;4.13;;;;;;;8.59;72.70;101142.16;8427630;33;20227;-72